sensor_id;sensor_type;location;lat;lon;timestamp;P1;durP1;ratioP1;P2;durP2;ratioP2
18796;SDS011;9526;52.612;13.300;2022-08-07T00:02:00;5.13;;;4.10;;
18796;SDS011;9526;52.612;13.300;2022-08-07T00:04:43;4.97;;;4.10;;
18796;SDS011;9526;52.612;13.300;2022-08-07T00:07:08;6.15;;;4.15;;
18796;SDS011;9526;52.612;13.300;2022-08-07T00:09:36;5.72;;;4.00;;
18796;SDS011;9526;52.612;13.300;2022-08-07T00:12:10;10.80;;;4.60;;
18796;SDS011;9526;52.612;13.300;2022-08-07T00:14:41;5.57;;;4.18;;
18796;SDS011;9526;52.612;13.300;2022-08-07T00:17:05;6.88;;;4.35;;
18796;SDS011;9526;52.612;13.300;2022-08-07T00:19:29;5.70;;;4.20;;
18796;SDS011;9526;52.612;13.300;2022-08-07T00:22:13;5.85;;;4.53;;
18796;SDS011;9526;52.612;13.300;2022-08-07T00:24:45;6.38;;;4.00;;
18796;SDS011;9526;52.612;13.300;2022-08-07T00:27:09;6.78;;;3.97;;
18796;SDS011;9526;52.612;13.300;2022-08-07T00:29:33;8.82;;;4.35;;
18796;SDS011;9526;52.612;13.300;2022-08-07T00:31:59;4.10;;;3.70;;
18796;SDS011;9526;52.612;13.300;2022-08-07T00:34:26;6.78;;;4.38;;
18796;SDS011;9526;52.612;13.300;2022-08-07T00:36:52;5.70;;;3.95;;
18796;SDS011;9526;52.612;13.300;2022-08-07T00:39:16;5.97;;;4.53;;
18796;SDS011;9526;52.612;13.300;2022-08-07T00:41:46;6.05;;;4.63;;
18796;SDS011;9526;52.612;13.300;2022-08-07T00:44:14;6.82;;;5.10;;
18796;SDS011;9526;52.612;13.300;2022-08-07T00:46:38;6.32;;;4.65;;
18796;SDS011;9526;52.612;13.300;2022-08-07T00:49:05;5.47;;;4.50;;
18796;SDS011;9526;52.612;13.300;2022-08-07T00:51:45;5.68;;;4.70;;
18796;SDS011;9526;52.612;13.300;2022-08-07T00:54:18;6.38;;;4.88;;
18796;SDS011;9526;52.612;13.300;2022-08-07T00:56:43;9.82;;;5.78;;
18796;SDS011;9526;52.612;13.300;2022-08-07T00:59:10;6.20;;;4.65;;
18796;SDS011;9526;52.612;13.300;2022-08-07T01:01:35;7.63;;;5.13;;
18796;SDS011;9526;52.612;13.300;2022-08-07T01:04:06;6.88;;;5.18;;
18796;SDS011;9526;52.612;13.300;2022-08-07T01:06:31;6.40;;;4.82;;
18796;SDS011;9526;52.612;13.300;2022-08-07T01:08:56;6.50;;;5.32;;
18796;SDS011;9526;52.612;13.300;2022-08-07T01:11:21;7.30;;;5.20;;
18796;SDS011;9526;52.612;13.300;2022-08-07T01:14:06;8.40;;;5.13;;
18796;SDS011;9526;52.612;13.300;2022-08-07T01:16:30;9.40;;;5.30;;
18796;SDS011;9526;52.612;13.300;2022-08-07T01:18:55;10.55;;;5.70;;
18796;SDS011;9526;52.612;13.300;2022-08-07T01:21:22;7.32;;;5.03;;
18796;SDS011;9526;52.612;13.300;2022-08-07T01:23:51;7.60;;;5.30;;
18796;SDS011;9526;52.612;13.300;2022-08-07T01:26:17;10.20;;;4.97;;
18796;SDS011;9526;52.612;13.300;2022-08-07T01:28:47;6.10;;;5.05;;
18796;SDS011;9526;52.612;13.300;2022-08-07T01:31:16;6.28;;;5.13;;
18796;SDS011;9526;52.612;13.300;2022-08-07T01:33:45;6.18;;;5.18;;
18796;SDS011;9526;52.612;13.300;2022-08-07T01:36:20;7.82;;;5.50;;
18796;SDS011;9526;52.612;13.300;2022-08-07T01:38:58;6.60;;;5.13;;
18796;SDS011;9526;52.612;13.300;2022-08-07T01:41:30;5.50;;;4.88;;
18796;SDS011;9526;52.612;13.300;2022-08-07T01:43:57;7.03;;;5.20;;
18796;SDS011;9526;52.612;13.300;2022-08-07T01:46:23;8.10;;;5.45;;
18796;SDS011;9526;52.612;13.300;2022-08-07T01:48:51;8.90;;;5.50;;
18796;SDS011;9526;52.612;13.300;2022-08-07T01:51:18;8.25;;;5.60;;
18796;SDS011;9526;52.612;13.300;2022-08-07T01:54:07;7.78;;;5.85;;
18796;SDS011;9526;52.612;13.300;2022-08-07T01:56:55;9.20;;;5.40;;
18796;SDS011;9526;52.612;13.300;2022-08-07T01:59:26;6.82;;;5.03;;
18796;SDS011;9526;52.612;13.300;2022-08-07T02:01:58;6.68;;;5.78;;
18796;SDS011;9526;52.612;13.300;2022-08-07T02:04:33;6.65;;;5.43;;
18796;SDS011;9526;52.612;13.300;2022-08-07T02:07:21;9.27;;;5.82;;
18796;SDS011;9526;52.612;13.300;2022-08-07T02:10:06;9.23;;;6.50;;
18796;SDS011;9526;52.612;13.300;2022-08-07T02:12:36;7.43;;;5.88;;
18796;SDS011;9526;52.612;13.300;2022-08-07T02:15:13;6.95;;;5.30;;
18796;SDS011;9526;52.612;13.300;2022-08-07T02:17:39;7.68;;;5.78;;
18796;SDS011;9526;52.612;13.300;2022-08-07T02:20:10;6.90;;;5.18;;
18796;SDS011;9526;52.612;13.300;2022-08-07T02:22:45;7.45;;;5.63;;
18796;SDS011;9526;52.612;13.300;2022-08-07T02:25:17;6.85;;;5.30;;
18796;SDS011;9526;52.612;13.300;2022-08-07T02:28:03;9.15;;;5.85;;
18796;SDS011;9526;52.612;13.300;2022-08-07T02:30:32;12.57;;;5.85;;
18796;SDS011;9526;52.612;13.300;2022-08-07T02:32:58;7.55;;;5.80;;
18796;SDS011;9526;52.612;13.300;2022-08-07T02:35:30;7.35;;;5.85;;
18796;SDS011;9526;52.612;13.300;2022-08-07T02:38:20;7.05;;;5.18;;
18796;SDS011;9526;52.612;13.300;2022-08-07T02:40:54;10.70;;;5.78;;
18796;SDS011;9526;52.612;13.300;2022-08-07T02:43:18;8.98;;;6.15;;
18796;SDS011;9526;52.612;13.300;2022-08-07T02:45:43;10.43;;;6.20;;
18796;SDS011;9526;52.612;13.300;2022-08-07T02:48:24;10.23;;;5.80;;
18796;SDS011;9526;52.612;13.300;2022-08-07T02:50:49;8.77;;;5.97;;
18796;SDS011;9526;52.612;13.300;2022-08-07T02:53:19;8.07;;;6.13;;
18796;SDS011;9526;52.612;13.300;2022-08-07T02:55:48;9.10;;;6.55;;
18796;SDS011;9526;52.612;13.300;2022-08-07T02:58:27;8.43;;;6.20;;
18796;SDS011;9526;52.612;13.300;2022-08-07T03:00:55;7.70;;;5.85;;
18796;SDS011;9526;52.612;13.300;2022-08-07T03:03:22;8.55;;;5.60;;
18796;SDS011;9526;52.612;13.300;2022-08-07T03:06:12;9.48;;;5.85;;
18796;SDS011;9526;52.612;13.300;2022-08-07T03:08:57;6.25;;;5.63;;
18796;SDS011;9526;52.612;13.300;2022-08-07T03:11:22;8.65;;;6.10;;
18796;SDS011;9526;52.612;13.300;2022-08-07T03:13:49;10.75;;;5.85;;
18796;SDS011;9526;52.612;13.300;2022-08-07T03:16:22;8.80;;;5.88;;
18796;SDS011;9526;52.612;13.300;2022-08-07T03:18:50;9.07;;;6.00;;
18796;SDS011;9526;52.612;13.300;2022-08-07T03:21:15;9.27;;;5.97;;
18796;SDS011;9526;52.612;13.300;2022-08-07T03:23:40;7.55;;;6.25;;
18796;SDS011;9526;52.612;13.300;2022-08-07T03:26:29;8.65;;;6.00;;
18796;SDS011;9526;52.612;13.300;2022-08-07T03:28:59;11.85;;;6.07;;
18796;SDS011;9526;52.612;13.300;2022-08-07T03:31:30;8.15;;;6.25;;
18796;SDS011;9526;52.612;13.300;2022-08-07T03:34:08;9.57;;;6.32;;
18796;SDS011;9526;52.612;13.300;2022-08-07T03:36:46;8.20;;;6.00;;
18796;SDS011;9526;52.612;13.300;2022-08-07T03:39:13;9.48;;;6.40;;
18796;SDS011;9526;52.612;13.300;2022-08-07T03:42:00;14.82;;;6.80;;
18796;SDS011;9526;52.612;13.300;2022-08-07T03:44:27;11.55;;;6.43;;
18796;SDS011;9526;52.612;13.300;2022-08-07T03:46:55;15.57;;;6.68;;
18796;SDS011;9526;52.612;13.300;2022-08-07T03:49:34;22.77;;;8.50;;
18796;SDS011;9526;52.612;13.300;2022-08-07T03:51:59;41.72;;;10.88;;
18796;SDS011;9526;52.612;13.300;2022-08-07T03:54:25;25.90;;;8.93;;
18796;SDS011;9526;52.612;13.300;2022-08-07T03:57:10;84.65;;;16.48;;
18796;SDS011;9526;52.612;13.300;2022-08-07T03:59:56;23.90;;;8.40;;
18796;SDS011;9526;52.612;13.300;2022-08-07T04:02:24;20.70;;;7.25;;
18796;SDS011;9526;52.612;13.300;2022-08-07T04:04:49;21.15;;;7.72;;
18796;SDS011;9526;52.612;13.300;2022-08-07T04:07:14;11.07;;;6.70;;
18796;SDS011;9526;52.612;13.300;2022-08-07T04:09:44;14.05;;;6.43;;
18796;SDS011;9526;52.612;13.300;2022-08-07T04:12:16;10.38;;;6.90;;
18796;SDS011;9526;52.612;13.300;2022-08-07T04:14:49;7.80;;;5.43;;
18796;SDS011;9526;52.612;13.300;2022-08-07T04:17:16;8.05;;;6.47;;
18796;SDS011;9526;52.612;13.300;2022-08-07T04:19:45;7.88;;;6.00;;
18796;SDS011;9526;52.612;13.300;2022-08-07T04:22:13;7.95;;;6.00;;
18796;SDS011;9526;52.612;13.300;2022-08-07T04:24:39;7.93;;;5.18;;
18796;SDS011;9526;52.612;13.300;2022-08-07T04:27:06;7.95;;;5.63;;
18796;SDS011;9526;52.612;13.300;2022-08-07T04:29:51;8.75;;;5.75;;
18796;SDS011;9526;52.612;13.300;2022-08-07T04:32:32;6.75;;;5.05;;
18796;SDS011;9526;52.612;13.300;2022-08-07T04:34:58;6.88;;;5.68;;
18796;SDS011;9526;52.612;13.300;2022-08-07T04:37:26;9.13;;;5.97;;
18796;SDS011;9526;52.612;13.300;2022-08-07T04:40:11;9.63;;;5.47;;
18796;SDS011;9526;52.612;13.300;2022-08-07T04:42:40;7.95;;;5.63;;
18796;SDS011;9526;52.612;13.300;2022-08-07T04:45:06;8.85;;;5.70;;
18796;SDS011;9526;52.612;13.300;2022-08-07T04:47:36;6.30;;;5.38;;
18796;SDS011;9526;52.612;13.300;2022-08-07T04:50:26;8.25;;;6.07;;
18796;SDS011;9526;52.612;13.300;2022-08-07T04:53:07;7.90;;;5.18;;
18796;SDS011;9526;52.612;13.300;2022-08-07T04:55:58;8.48;;;5.35;;
18796;SDS011;9526;52.612;13.300;2022-08-07T04:58:51;7.60;;;5.45;;
18796;SDS011;9526;52.612;13.300;2022-08-07T05:01:43;9.75;;;5.18;;
18796;SDS011;9526;52.612;13.300;2022-08-07T05:04:13;11.27;;;5.55;;
18796;SDS011;9526;52.612;13.300;2022-08-07T05:06:45;10.25;;;6.15;;
18796;SDS011;9526;52.612;13.300;2022-08-07T05:09:25;6.88;;;5.32;;
18796;SDS011;9526;52.612;13.300;2022-08-07T05:12:10;8.45;;;4.93;;
18796;SDS011;9526;52.612;13.300;2022-08-07T05:14:51;6.93;;;4.68;;
18796;SDS011;9526;52.612;13.300;2022-08-07T05:17:29;9.25;;;4.80;;
18796;SDS011;9526;52.612;13.300;2022-08-07T05:20:15;6.22;;;4.60;;
18796;SDS011;9526;52.612;13.300;2022-08-07T05:22:48;7.78;;;4.40;;
18796;SDS011;9526;52.612;13.300;2022-08-07T05:25:17;6.53;;;4.63;;
18796;SDS011;9526;52.612;13.300;2022-08-07T05:27:59;7.72;;;4.45;;
18796;SDS011;9526;52.612;13.300;2022-08-07T05:30:46;7.50;;;4.15;;
18796;SDS011;9526;52.612;13.300;2022-08-07T05:33:14;8.52;;;4.05;;
18796;SDS011;9526;52.612;13.300;2022-08-07T05:35:42;7.40;;;3.78;;
18796;SDS011;9526;52.612;13.300;2022-08-07T05:38:08;8.05;;;4.15;;
18796;SDS011;9526;52.612;13.300;2022-08-07T05:40:54;7.22;;;3.60;;
18796;SDS011;9526;52.612;13.300;2022-08-07T05:43:19;5.70;;;3.65;;
18796;SDS011;9526;52.612;13.300;2022-08-07T05:46:04;4.95;;;3.70;;
18796;SDS011;9526;52.612;13.300;2022-08-07T05:48:30;5.57;;;4.03;;
18796;SDS011;9526;52.612;13.300;2022-08-07T05:50:55;6.32;;;3.67;;
18796;SDS011;9526;52.612;13.300;2022-08-07T05:53:23;6.60;;;4.13;;
18796;SDS011;9526;52.612;13.300;2022-08-07T05:56:07;6.93;;;3.92;;
18796;SDS011;9526;52.612;13.300;2022-08-07T05:58:37;6.45;;;3.65;;
18796;SDS011;9526;52.612;13.300;2022-08-07T06:01:13;4.78;;;3.60;;
18796;SDS011;9526;52.612;13.300;2022-08-07T06:03:44;7.82;;;3.55;;
18796;SDS011;9526;52.612;13.300;2022-08-07T06:06:26;5.75;;;3.40;;
18796;SDS011;9526;52.612;13.300;2022-08-07T06:08:56;5.93;;;3.38;;
18796;SDS011;9526;52.612;13.300;2022-08-07T06:11:26;4.70;;;2.97;;
18796;SDS011;9526;52.612;13.300;2022-08-07T06:13:51;5.72;;;3.22;;
18796;SDS011;9526;52.612;13.300;2022-08-07T06:16:37;4.65;;;3.22;;
18796;SDS011;9526;52.612;13.300;2022-08-07T06:19:04;4.40;;;3.15;;
18796;SDS011;9526;52.612;13.300;2022-08-07T06:21:38;5.53;;;3.13;;
18796;SDS011;9526;52.612;13.300;2022-08-07T06:24:25;4.20;;;3.30;;
18796;SDS011;9526;52.612;13.300;2022-08-07T06:27:09;5.75;;;3.00;;
18796;SDS011;9526;52.612;13.300;2022-08-07T06:30:02;4.07;;;3.03;;
18796;SDS011;9526;52.612;13.300;2022-08-07T06:32:44;4.28;;;2.90;;
18796;SDS011;9526;52.612;13.300;2022-08-07T06:35:11;5.80;;;2.55;;
18796;SDS011;9526;52.612;13.300;2022-08-07T06:37:39;3.45;;;3.00;;
18796;SDS011;9526;52.612;13.300;2022-08-07T06:40:06;4.95;;;2.50;;
18796;SDS011;9526;52.612;13.300;2022-08-07T06:42:40;5.55;;;2.63;;
18796;SDS011;9526;52.612;13.300;2022-08-07T06:45:27;2.60;;;2.40;;
18796;SDS011;9526;52.612;13.300;2022-08-07T06:47:56;2.30;;;2.10;;
18796;SDS011;9526;52.612;13.300;2022-08-07T06:50:42;4.55;;;2.78;;
18796;SDS011;9526;52.612;13.300;2022-08-07T06:53:11;3.80;;;2.67;;
18796;SDS011;9526;52.612;13.300;2022-08-07T06:55:57;5.03;;;2.50;;
18796;SDS011;9526;52.612;13.300;2022-08-07T06:58:26;3.90;;;2.50;;
18796;SDS011;9526;52.612;13.300;2022-08-07T07:00:58;6.88;;;2.80;;
18796;SDS011;9526;52.612;13.300;2022-08-07T07:03:25;4.22;;;2.00;;
18796;SDS011;9526;52.612;13.300;2022-08-07T07:06:11;5.90;;;2.22;;
18796;SDS011;9526;52.612;13.300;2022-08-07T07:08:46;4.72;;;2.50;;
18796;SDS011;9526;52.612;13.300;2022-08-07T07:11:10;5.40;;;2.50;;
18796;SDS011;9526;52.612;13.300;2022-08-07T07:13:54;2.80;;;2.20;;
18796;SDS011;9526;52.612;13.300;2022-08-07T07:16:22;4.57;;;2.30;;
18796;SDS011;9526;52.612;13.300;2022-08-07T07:18:54;5.78;;;2.40;;
18796;SDS011;9526;52.612;13.300;2022-08-07T07:21:46;3.40;;;2.30;;
18796;SDS011;9526;52.612;13.300;2022-08-07T07:24:32;3.97;;;2.13;;
18796;SDS011;9526;52.612;13.300;2022-08-07T07:26:57;2.38;;;1.92;;
18796;SDS011;9526;52.612;13.300;2022-08-07T07:29:26;4.72;;;2.42;;
18796;SDS011;9526;52.612;13.300;2022-08-07T07:32:17;3.70;;;1.80;;
18796;SDS011;9526;52.612;13.300;2022-08-07T07:34:44;5.50;;;1.92;;
18796;SDS011;9526;52.612;13.300;2022-08-07T07:37:12;3.78;;;1.95;;
18796;SDS011;9526;52.612;13.300;2022-08-07T07:39:58;5.57;;;1.80;;
18796;SDS011;9526;52.612;13.300;2022-08-07T07:42:35;4.60;;;2.00;;
18796;SDS011;9526;52.612;13.300;2022-08-07T07:45:00;2.22;;;1.80;;
18796;SDS011;9526;52.612;13.300;2022-08-07T07:47:26;2.50;;;1.70;;
18796;SDS011;9526;52.612;13.300;2022-08-07T07:50:12;3.95;;;1.50;;
18796;SDS011;9526;52.612;13.300;2022-08-07T07:52:58;3.28;;;1.70;;
18796;SDS011;9526;52.612;13.300;2022-08-07T07:55:24;2.85;;;1.65;;
18796;SDS011;9526;52.612;13.300;2022-08-07T07:58:05;3.88;;;1.75;;
18796;SDS011;9526;52.612;13.300;2022-08-07T08:00:30;2.50;;;1.52;;
18796;SDS011;9526;52.612;13.300;2022-08-07T08:02:58;4.38;;;1.60;;
18796;SDS011;9526;52.612;13.300;2022-08-07T08:05:29;5.35;;;1.80;;
18796;SDS011;9526;52.612;13.300;2022-08-07T08:08:14;3.17;;;1.80;;
18796;SDS011;9526;52.612;13.300;2022-08-07T08:10:57;2.38;;;1.70;;
18796;SDS011;9526;52.612;13.300;2022-08-07T08:13:24;2.88;;;1.60;;
18796;SDS011;9526;52.612;13.300;2022-08-07T08:16:11;5.13;;;1.80;;
18796;SDS011;9526;52.612;13.300;2022-08-07T08:18:38;2.05;;;1.70;;
18796;SDS011;9526;52.612;13.300;2022-08-07T08:21:05;2.75;;;1.55;;
18796;SDS011;9526;52.612;13.300;2022-08-07T08:24:11;5.35;;;1.95;;
18796;SDS011;9526;52.612;13.300;2022-08-07T08:27:05;4.15;;;1.60;;
18796;SDS011;9526;52.612;13.300;2022-08-07T08:29:32;4.03;;;1.65;;
18796;SDS011;9526;52.612;13.300;2022-08-07T08:32:17;5.10;;;1.60;;
18796;SDS011;9526;52.612;13.300;2022-08-07T08:34:46;5.25;;;1.70;;
18796;SDS011;9526;52.612;13.300;2022-08-07T08:37:12;2.90;;;1.40;;
18796;SDS011;9526;52.612;13.300;2022-08-07T08:39:59;2.15;;;1.42;;
18796;SDS011;9526;52.612;13.300;2022-08-07T08:42:34;4.65;;;2.08;;
18796;SDS011;9526;52.612;13.300;2022-08-07T08:45:04;4.03;;;2.05;;
18796;SDS011;9526;52.612;13.300;2022-08-07T08:47:39;4.55;;;2.00;;
18796;SDS011;9526;52.612;13.300;2022-08-07T08:50:16;6.63;;;2.30;;
18796;SDS011;9526;52.612;13.300;2022-08-07T08:53:02;4.90;;;2.00;;
18796;SDS011;9526;52.612;13.300;2022-08-07T08:55:39;3.95;;;1.75;;
18796;SDS011;9526;52.612;13.300;2022-08-07T08:58:21;5.15;;;2.17;;
18796;SDS011;9526;52.612;13.300;2022-08-07T09:00:58;3.35;;;2.00;;
18796;SDS011;9526;52.612;13.300;2022-08-07T09:03:39;4.57;;;2.03;;
18796;SDS011;9526;52.612;13.300;2022-08-07T09:06:18;3.55;;;2.05;;
18796;SDS011;9526;52.612;13.300;2022-08-07T09:08:59;5.03;;;2.13;;
18796;SDS011;9526;52.612;13.300;2022-08-07T09:11:46;4.38;;;1.95;;
18796;SDS011;9526;52.612;13.300;2022-08-07T09:14:30;3.85;;;1.83;;
18796;SDS011;9526;52.612;13.300;2022-08-07T09:17:14;6.15;;;2.30;;
18796;SDS011;9526;52.612;13.300;2022-08-07T09:20:17;4.40;;;2.05;;
18796;SDS011;9526;52.612;13.300;2022-08-07T09:22:58;5.63;;;2.33;;
18796;SDS011;9526;52.612;13.300;2022-08-07T09:25:51;3.75;;;1.98;;
18796;SDS011;9526;52.612;13.300;2022-08-07T09:28:30;3.95;;;2.10;;
18796;SDS011;9526;52.612;13.300;2022-08-07T09:31:35;5.22;;;1.90;;
18796;SDS011;9526;52.612;13.300;2022-08-07T09:34:14;4.95;;;2.20;;
18796;SDS011;9526;52.612;13.300;2022-08-07T09:36:50;3.50;;;1.90;;
18796;SDS011;9526;52.612;13.300;2022-08-07T09:39:28;3.40;;;1.70;;
18796;SDS011;9526;52.612;13.300;2022-08-07T09:42:20;2.90;;;1.77;;
18796;SDS011;9526;52.612;13.300;2022-08-07T09:45:05;2.63;;;1.95;;
18796;SDS011;9526;52.612;13.300;2022-08-07T09:47:59;3.10;;;2.00;;
18796;SDS011;9526;52.612;13.300;2022-08-07T09:50:45;3.08;;;1.90;;
18796;SDS011;9526;52.612;13.300;2022-08-07T09:53:23;2.95;;;1.60;;
18796;SDS011;9526;52.612;13.300;2022-08-07T09:56:17;3.47;;;1.90;;
18796;SDS011;9526;52.612;13.300;2022-08-07T09:59:06;2.28;;;1.73;;
18796;SDS011;9526;52.612;13.300;2022-08-07T10:02:18;3.03;;;1.55;;
18796;SDS011;9526;52.612;13.300;2022-08-07T10:05:24;1.50;;;1.40;;
18796;SDS011;9526;52.612;13.300;2022-08-07T10:08:36;4.03;;;1.80;;
18796;SDS011;9526;52.612;13.300;2022-08-07T10:11:21;2.20;;;1.45;;
18796;SDS011;9526;52.612;13.300;2022-08-07T10:14:27;8.40;;;1.73;;
18796;SDS011;9526;52.612;13.300;2022-08-07T10:17:22;3.63;;;1.63;;
18796;SDS011;9526;52.612;13.300;2022-08-07T10:20:24;3.65;;;1.70;;
18796;SDS011;9526;52.612;13.300;2022-08-07T10:23:04;2.33;;;1.50;;
18796;SDS011;9526;52.612;13.300;2022-08-07T10:26:27;3.55;;;1.65;;
18796;SDS011;9526;52.612;13.300;2022-08-07T10:29:20;3.83;;;1.95;;
18796;SDS011;9526;52.612;13.300;2022-08-07T10:32:26;3.83;;;1.92;;
18796;SDS011;9526;52.612;13.300;2022-08-07T10:35:14;4.57;;;1.70;;
18796;SDS011;9526;52.612;13.300;2022-08-07T10:38:11;2.38;;;1.70;;
18796;SDS011;9526;52.612;13.300;2022-08-07T10:41:08;2.28;;;1.50;;
18796;SDS011;9526;52.612;13.300;2022-08-07T10:44:01;1.88;;;1.30;;
18796;SDS011;9526;52.612;13.300;2022-08-07T10:46:34;2.55;;;1.20;;
18796;SDS011;9526;52.612;13.300;2022-08-07T10:49:13;2.47;;;1.30;;
18796;SDS011;9526;52.612;13.300;2022-08-07T10:52:05;2.15;;;1.30;;
18796;SDS011;9526;52.612;13.300;2022-08-07T10:54:39;3.45;;;1.52;;
18796;SDS011;9526;52.612;13.300;2022-08-07T10:57:23;2.13;;;1.50;;
18796;SDS011;9526;52.612;13.300;2022-08-07T11:00:03;2.45;;;1.40;;
18796;SDS011;9526;52.612;13.300;2022-08-07T11:02:54;2.13;;;1.42;;
18796;SDS011;9526;52.612;13.300;2022-08-07T11:05:35;1.90;;;1.50;;
18796;SDS011;9526;52.612;13.300;2022-08-07T11:08:13;1.98;;;1.20;;
18796;SDS011;9526;52.612;13.300;2022-08-07T11:10:51;2.60;;;1.55;;
18796;SDS011;9526;52.612;13.300;2022-08-07T11:13:23;2.80;;;1.48;;
18796;SDS011;9526;52.612;13.300;2022-08-07T11:16:14;2.55;;;1.48;;
18796;SDS011;9526;52.612;13.300;2022-08-07T11:18:52;2.17;;;1.45;;
18796;SDS011;9526;52.612;13.300;2022-08-07T11:21:31;2.17;;;1.40;;
18796;SDS011;9526;52.612;13.300;2022-08-07T11:24:07;3.33;;;1.65;;
18796;SDS011;9526;52.612;13.300;2022-08-07T11:26:43;4.68;;;1.77;;
18796;SDS011;9526;52.612;13.300;2022-08-07T11:29:18;2.28;;;1.50;;
18796;SDS011;9526;52.612;13.300;2022-08-07T11:32:05;2.47;;;1.52;;
18796;SDS011;9526;52.612;13.300;2022-08-07T11:34:47;2.97;;;1.50;;
18796;SDS011;9526;52.612;13.300;2022-08-07T11:37:20;2.33;;;1.30;;
18796;SDS011;9526;52.612;13.300;2022-08-07T11:40:24;2.17;;;1.42;;
18796;SDS011;9526;52.612;13.300;2022-08-07T11:43:03;1.65;;;1.52;;
18796;SDS011;9526;52.612;13.300;2022-08-07T11:45:37;2.55;;;1.40;;
18796;SDS011;9526;52.612;13.300;2022-08-07T11:48:40;2.83;;;1.40;;
18796;SDS011;9526;52.612;13.300;2022-08-07T11:52:02;3.35;;;1.30;;
18796;SDS011;9526;52.612;13.300;2022-08-07T11:55:00;1.92;;;1.10;;
18796;SDS011;9526;52.612;13.300;2022-08-07T11:57:40;1.35;;;1.02;;
18796;SDS011;9526;52.612;13.300;2022-08-07T12:00:24;4.57;;;1.38;;
18796;SDS011;9526;52.612;13.300;2022-08-07T12:03:17;1.48;;;1.30;;
18796;SDS011;9526;52.612;13.300;2022-08-07T12:06:36;2.95;;;1.40;;
18796;SDS011;9526;52.612;13.300;2022-08-07T12:09:27;4.25;;;1.40;;
18796;SDS011;9526;52.612;13.300;2022-08-07T12:11:59;3.20;;;1.70;;
18796;SDS011;9526;52.612;13.300;2022-08-07T12:14:35;2.40;;;1.40;;
18796;SDS011;9526;52.612;13.300;2022-08-07T12:17:20;1.45;;;1.35;;
18796;SDS011;9526;52.612;13.300;2022-08-07T12:19:56;3.78;;;1.50;;
18796;SDS011;9526;52.612;13.300;2022-08-07T12:22:47;2.03;;;1.45;;
18796;SDS011;9526;52.612;13.300;2022-08-07T12:25:38;2.22;;;1.50;;
18796;SDS011;9526;52.612;13.300;2022-08-07T12:28:38;1.60;;;1.45;;
18796;SDS011;9526;52.612;13.300;2022-08-07T12:31:15;3.60;;;1.60;;
18796;SDS011;9526;52.612;13.300;2022-08-07T12:34:06;2.10;;;1.55;;
18796;SDS011;9526;52.612;13.300;2022-08-07T12:36:34;4.28;;;1.70;;
18796;SDS011;9526;52.612;13.300;2022-08-07T12:39:09;2.03;;;1.33;;
18796;SDS011;9526;52.612;13.300;2022-08-07T12:41:56;2.35;;;1.52;;
18796;SDS011;9526;52.612;13.300;2022-08-07T12:44:22;4.28;;;1.70;;
18796;SDS011;9526;52.612;13.300;2022-08-07T12:46:52;3.22;;;1.30;;
18796;SDS011;9526;52.612;13.300;2022-08-07T12:49:32;2.85;;;1.50;;
18796;SDS011;9526;52.612;13.300;2022-08-07T12:52:14;1.85;;;1.50;;
18796;SDS011;9526;52.612;13.300;2022-08-07T12:54:50;3.58;;;1.50;;
18796;SDS011;9526;52.612;13.300;2022-08-07T12:57:31;3.63;;;2.00;;
18796;SDS011;9526;52.612;13.300;2022-08-07T13:00:18;2.85;;;1.80;;
18796;SDS011;9526;52.612;13.300;2022-08-07T13:03:04;3.47;;;1.60;;
18796;SDS011;9526;52.612;13.300;2022-08-07T13:06:04;1.63;;;1.50;;
18796;SDS011;9526;52.612;13.300;2022-08-07T13:08:50;3.65;;;1.60;;
18796;SDS011;9526;52.612;13.300;2022-08-07T13:11:46;2.22;;;1.55;;
18796;SDS011;9526;52.612;13.300;2022-08-07T13:14:34;2.85;;;1.48;;
18796;SDS011;9526;52.612;13.300;2022-08-07T13:17:16;2.15;;;1.50;;
18796;SDS011;9526;52.612;13.300;2022-08-07T13:20:05;2.10;;;1.67;;
18796;SDS011;9526;52.612;13.300;2022-08-07T13:22:36;2.38;;;1.40;;
18796;SDS011;9526;52.612;13.300;2022-08-07T13:25:20;3.88;;;1.50;;
18796;SDS011;9526;52.612;13.300;2022-08-07T13:27:54;4.40;;;1.30;;
18796;SDS011;9526;52.612;13.300;2022-08-07T13:30:36;1.65;;;1.35;;
18796;SDS011;9526;52.612;13.300;2022-08-07T13:33:15;2.35;;;1.50;;
18796;SDS011;9526;52.612;13.300;2022-08-07T13:36:11;4.78;;;1.52;;
18796;SDS011;9526;52.612;13.300;2022-08-07T13:38:48;2.63;;;1.30;;
18796;SDS011;9526;52.612;13.300;2022-08-07T13:41:24;6.18;;;1.70;;
18796;SDS011;9526;52.612;13.300;2022-08-07T13:44:02;1.38;;;1.00;;
18796;SDS011;9526;52.612;13.300;2022-08-07T13:46:35;2.10;;;1.30;;
18796;SDS011;9526;52.612;13.300;2022-08-07T13:49:10;1.95;;;1.15;;
18796;SDS011;9526;52.612;13.300;2022-08-07T13:52:01;3.00;;;1.30;;
18796;SDS011;9526;52.612;13.300;2022-08-07T13:54:47;1.45;;;1.20;;
18796;SDS011;9526;52.612;13.300;2022-08-07T13:57:14;3.90;;;1.48;;
18796;SDS011;9526;52.612;13.300;2022-08-07T13:59:48;2.95;;;1.35;;
18796;SDS011;9526;52.612;13.300;2022-08-07T14:02:20;3.47;;;1.23;;
18796;SDS011;9526;52.612;13.300;2022-08-07T14:04:56;4.47;;;1.33;;
18796;SDS011;9526;52.612;13.300;2022-08-07T14:07:26;1.83;;;1.40;;
18796;SDS011;9526;52.612;13.300;2022-08-07T14:09:54;3.63;;;1.30;;
18796;SDS011;9526;52.612;13.300;2022-08-07T14:12:40;1.65;;;1.33;;
18796;SDS011;9526;52.612;13.300;2022-08-07T14:15:17;2.47;;;1.40;;
18796;SDS011;9526;52.612;13.300;2022-08-07T14:17:57;2.65;;;1.35;;
18796;SDS011;9526;52.612;13.300;2022-08-07T14:20:47;1.50;;;1.27;;
18796;SDS011;9526;52.612;13.300;2022-08-07T14:23:16;1.60;;;1.17;;
18796;SDS011;9526;52.612;13.300;2022-08-07T14:26:06;2.38;;;1.17;;
18796;SDS011;9526;52.612;13.300;2022-08-07T14:28:52;1.85;;;1.40;;
18796;SDS011;9526;52.612;13.300;2022-08-07T14:31:27;1.85;;;1.23;;
18796;SDS011;9526;52.612;13.300;2022-08-07T14:34:13;1.70;;;1.13;;
18796;SDS011;9526;52.612;13.300;2022-08-07T14:36:47;4.43;;;1.63;;
18796;SDS011;9526;52.612;13.300;2022-08-07T14:39:16;3.75;;;1.67;;
18796;SDS011;9526;52.612;13.300;2022-08-07T14:42:01;1.92;;;1.40;;
18796;SDS011;9526;52.612;13.300;2022-08-07T14:44:43;2.83;;;1.40;;
18796;SDS011;9526;52.612;13.300;2022-08-07T14:47:12;4.70;;;1.40;;
18796;SDS011;9526;52.612;13.300;2022-08-07T14:49:40;3.38;;;1.42;;
18796;SDS011;9526;52.612;13.300;2022-08-07T14:52:19;3.35;;;1.48;;
18796;SDS011;9526;52.612;13.300;2022-08-07T14:54:49;2.60;;;1.50;;
18796;SDS011;9526;52.612;13.300;2022-08-07T14:57:14;3.10;;;1.45;;
18796;SDS011;9526;52.612;13.300;2022-08-07T14:59:40;3.28;;;1.48;;
18796;SDS011;9526;52.612;13.300;2022-08-07T15:02:25;1.70;;;1.38;;
18796;SDS011;9526;52.612;13.300;2022-08-07T15:05:14;2.47;;;1.30;;
18796;SDS011;9526;52.612;13.300;2022-08-07T15:07:44;4.65;;;1.50;;
18796;SDS011;9526;52.612;13.300;2022-08-07T15:10:16;2.22;;;1.52;;
18796;SDS011;9526;52.612;13.300;2022-08-07T15:12:47;3.00;;;1.67;;
18796;SDS011;9526;52.612;13.300;2022-08-07T15:15:37;3.58;;;1.52;;
18796;SDS011;9526;52.612;13.300;2022-08-07T15:18:13;2.13;;;1.40;;
18796;SDS011;9526;52.612;13.300;2022-08-07T15:21:05;3.13;;;1.48;;
18796;SDS011;9526;52.612;13.300;2022-08-07T15:23:56;1.92;;;1.50;;
18796;SDS011;9526;52.612;13.300;2022-08-07T15:26:44;3.63;;;1.40;;
18796;SDS011;9526;52.612;13.300;2022-08-07T15:29:12;5.70;;;1.45;;
18796;SDS011;9526;52.612;13.300;2022-08-07T15:32:01;3.47;;;1.48;;
18796;SDS011;9526;52.612;13.300;2022-08-07T15:34:32;2.55;;;1.48;;
18796;SDS011;9526;52.612;13.300;2022-08-07T15:37:21;3.40;;;1.40;;
18796;SDS011;9526;52.612;13.300;2022-08-07T15:40:13;2.55;;;1.50;;
18796;SDS011;9526;52.612;13.300;2022-08-07T15:43:02;2.25;;;1.55;;
18796;SDS011;9526;52.612;13.300;2022-08-07T15:45:56;2.10;;;1.77;;
18796;SDS011;9526;52.612;13.300;2022-08-07T15:48:41;3.60;;;1.60;;
18796;SDS011;9526;52.612;13.300;2022-08-07T15:51:26;2.00;;;1.58;;